createdAt,value
2018-03-26T00:00:41.203Z,1013.1
2018-03-26T00:01:41.206Z,1013.09
2018-03-26T00:02:41.221Z,1013.12
2018-03-26T00:03:41.201Z,1013.05
2018-03-26T00:04:41.199Z,1013.11
2018-03-26T00:05:41.211Z,1013.11
2018-03-26T00:06:41.213Z,1013.08
2018-03-26T00:07:41.207Z,1013.06
2018-03-26T00:08:41.215Z,1013.02
2018-03-26T00:09:41.225Z,1013.01
2018-03-26T00:10:41.225Z,1013.02
2018-03-26T00:11:41.233Z,1013.07
2018-03-26T00:12:41.240Z,1013.11
2018-03-26T00:13:41.242Z,1013.11
2018-03-26T00:14:41.251Z,1013.1
2018-03-26T00:15:41.254Z,1013.12
2018-03-26T00:16:41.265Z,1013.12
2018-03-26T00:17:41.256Z,1013.13
2018-03-26T00:18:41.528Z,1013.1
2018-03-26T00:19:41.269Z,1013.13
2018-03-26T00:20:41.271Z,1013.12
2018-03-26T00:21:41.266Z,1013.13
2018-03-26T00:22:41.269Z,1013.12
2018-03-26T00:23:41.299Z,1013.13
2018-03-26T00:24:41.274Z,1013.09
2018-03-26T00:25:41.279Z,1013.06
2018-03-26T00:26:41.276Z,1013.11
2018-03-26T00:27:41.267Z,1013.1
2018-03-26T00:28:41.281Z,1013.15
2018-03-26T00:29:41.282Z,1013.09
2018-03-26T00:30:41.280Z,1013.12
2018-03-26T00:31:41.276Z,1013.11
2018-03-26T00:32:41.278Z,1013.12
2018-03-26T00:33:41.281Z,1013.1
2018-03-26T00:34:41.307Z,1013.1
2018-03-26T00:35:41.301Z,1013.15
2018-03-26T00:36:41.314Z,1013.13
2018-03-26T00:37:41.310Z,1013.11
2018-03-26T00:38:41.317Z,1013.14
2018-03-26T00:39:41.332Z,1013.15
2018-03-26T00:40:41.316Z,1013.17
2018-03-26T00:41:41.317Z,1013.18
2018-03-26T00:42:41.324Z,1013.17
2018-03-26T00:43:41.330Z,1013.21
2018-03-26T00:44:41.351Z,1013.16
2018-03-26T00:45:41.334Z,1013.18
2018-03-26T00:46:41.332Z,1013.2
2018-03-26T00:47:41.342Z,1013.22
2018-03-26T00:48:41.348Z,1013.24
2018-03-26T00:49:41.356Z,1013.23
2018-03-26T00:50:41.358Z,1013.23
2018-03-26T00:51:41.358Z,1013.28
2018-03-26T00:52:41.358Z,1013.25
2018-03-26T00:53:41.359Z,1013.22
2018-03-26T00:54:41.368Z,1013.2
2018-03-26T00:55:41.370Z,1013.2
2018-03-26T00:56:41.370Z,1013.19
2018-03-26T00:57:41.378Z,1013.21
2018-03-26T00:58:41.383Z,1013.21
2018-03-26T00:59:41.381Z,1013.21
2018-03-26T01:00:41.381Z,1013.25
2018-03-26T01:01:41.393Z,1013.22
2018-03-26T01:02:41.391Z,1013.19
2018-03-26T01:03:41.393Z,1013.22
2018-03-26T01:04:41.390Z,1013.2
2018-03-26T01:05:41.405Z,1013.22
2018-03-26T01:06:41.413Z,1013.2
2018-03-26T01:07:41.404Z,1013.25
2018-03-26T01:08:41.404Z,1013.28
2018-03-26T01:09:41.405Z,1013.27
2018-03-26T01:10:41.408Z,1013.24
2018-03-26T01:11:41.431Z,1013.25
2018-03-26T01:12:41.415Z,1013.26
2018-03-26T01:13:41.428Z,1013.23
2018-03-26T01:14:41.422Z,1013.26
2018-03-26T01:15:41.429Z,1013.23
2018-03-26T01:16:41.424Z,1013.22
2018-03-26T01:17:41.431Z,1013.2
2018-03-26T01:18:41.430Z,1013.22
2018-03-26T01:19:41.445Z,1013.25
2018-03-26T01:20:41.447Z,1013.26
2018-03-26T01:21:41.444Z,1013.23
2018-03-26T01:22:41.466Z,1013.22
2018-03-26T01:23:41.447Z,1013.3
2018-03-26T01:24:41.445Z,1013.32
2018-03-26T01:25:41.466Z,1013.33
2018-03-26T01:26:41.454Z,1013.31
2018-03-26T01:27:41.476Z,1013.33
2018-03-26T01:28:41.506Z,1013.33
2018-03-26T01:29:41.553Z,1013.33
2018-03-26T01:30:41.473Z,1013.34
2018-03-26T01:31:41.466Z,1013.37
2018-03-26T01:32:41.486Z,1013.34
2018-03-26T01:33:41.495Z,1013.36
2018-03-26T01:34:41.493Z,1013.37
2018-03-26T01:35:41.484Z,1013.38
2018-03-26T01:36:41.508Z,1013.34
2018-03-26T01:37:41.495Z,1013.35
2018-03-26T01:38:41.508Z,1013.38
2018-03-26T01:39:41.699Z,1013.35
2018-03-26T01:40:41.550Z,1013.34
2018-03-26T01:41:41.511Z,1013.35
2018-03-26T01:42:41.542Z,1013.38
2018-03-26T01:43:41.516Z,1013.41
2018-03-26T01:44:41.532Z,1013.36
2018-03-26T01:45:41.527Z,1013.4
2018-03-26T01:46:41.527Z,1013.36
2018-03-26T01:47:41.512Z,1013.38
2018-03-26T01:48:41.520Z,1013.4
2018-03-26T01:49:41.523Z,1013.45
2018-03-26T01:50:41.536Z,1013.42
2018-03-26T01:51:41.524Z,1013.46
2018-03-26T01:52:41.537Z,1013.46
2018-03-26T01:53:41.530Z,1013.45
2018-03-26T01:54:41.523Z,1013.45
2018-03-26T01:55:41.561Z,1013.47
2018-03-26T01:56:41.550Z,1013.48
2018-03-26T01:57:41.545Z,1013.46
2018-03-26T01:58:41.566Z,1013.5
2018-03-26T01:59:41.539Z,1013.49
2018-03-26T02:00:41.556Z,1013.49
2018-03-26T02:01:41.593Z,1013.51
2018-03-26T02:02:41.587Z,1013.49
2018-03-26T02:03:41.544Z,1013.47
2018-03-26T02:04:41.612Z,1013.5
2018-03-26T02:05:41.622Z,1013.48
2018-03-26T02:06:41.563Z,1013.54
2018-03-26T02:07:41.572Z,1013.51
2018-03-26T02:08:41.577Z,1013.6
2018-03-26T02:09:41.586Z,1013.57
2018-03-26T02:10:41.578Z,1013.58
2018-03-26T02:11:41.588Z,1013.57
2018-03-26T02:12:41.593Z,1013.56
2018-03-26T02:13:41.601Z,1013.54
2018-03-26T02:14:41.629Z,1013.55
2018-03-26T02:15:41.609Z,1013.54
2018-03-26T02:16:41.625Z,1013.58
2018-03-26T02:17:41.611Z,1013.54
2018-03-26T02:18:41.616Z,1013.56
2018-03-26T02:19:41.617Z,1013.57
2018-03-26T02:20:41.625Z,1013.56
2018-03-26T02:21:41.634Z,1013.6
2018-03-26T02:22:41.634Z,1013.58
2018-03-26T02:23:41.643Z,1013.59
2018-03-26T02:24:41.651Z,1013.59
2018-03-26T02:25:41.649Z,1013.61
2018-03-26T02:26:41.724Z,1013.61
2018-03-26T02:27:41.643Z,1013.63
2018-03-26T02:28:41.645Z,1013.58
2018-03-26T02:29:41.650Z,1013.56
2018-03-26T02:30:41.659Z,1013.58
2018-03-26T02:31:41.674Z,1013.61
2018-03-26T02:32:41.670Z,1013.65
2018-03-26T02:33:41.671Z,1013.67
2018-03-26T02:34:41.685Z,1013.7
2018-03-26T02:35:41.685Z,1013.68
2018-03-26T02:36:41.690Z,1013.69
2018-03-26T02:37:41.695Z,1013.72
2018-03-26T02:38:41.702Z,1013.76
2018-03-26T02:39:41.709Z,1013.73
2018-03-26T02:40:41.709Z,1013.71
2018-03-26T02:41:41.723Z,1013.72
2018-03-26T02:42:41.713Z,1013.71
2018-03-26T02:43:41.699Z,1013.71
2018-03-26T02:44:41.713Z,1013.68
2018-03-26T02:45:41.708Z,1013.69
2018-03-26T02:46:41.715Z,1013.69
2018-03-26T02:47:41.710Z,1013.74
2018-03-26T02:48:41.717Z,1013.76
2018-03-26T02:49:41.713Z,1013.72
2018-03-26T02:50:41.805Z,1013.74
2018-03-26T02:51:41.713Z,1013.76
2018-03-26T02:52:41.728Z,1013.78
2018-03-26T02:53:41.731Z,1013.78
2018-03-26T02:54:41.737Z,1013.75
2018-03-26T02:55:41.726Z,1013.81
2018-03-26T02:56:41.759Z,1013.83
2018-03-26T02:57:41.738Z,1013.87
2018-03-26T02:58:41.747Z,1013.86
2018-03-26T02:59:41.743Z,1013.85
2018-03-26T03:00:41.753Z,1013.87
2018-03-26T03:01:41.773Z,1013.86
2018-03-26T03:02:41.755Z,1013.9
2018-03-26T03:03:41.755Z,1013.92
2018-03-26T03:04:41.750Z,1013.9
2018-03-26T03:05:41.771Z,1013.93
2018-03-26T03:06:41.764Z,1013.9
2018-03-26T03:07:41.758Z,1013.9
2018-03-26T03:08:41.767Z,1013.91
2018-03-26T03:09:41.774Z,1013.9
2018-03-26T03:10:41.780Z,1013.95
2018-03-26T03:11:41.776Z,1013.9
2018-03-26T03:12:41.780Z,1013.88
2018-03-26T03:13:41.792Z,1013.91
2018-03-26T03:14:41.784Z,1013.92
2018-03-26T03:15:41.780Z,1013.92
2018-03-26T03:16:41.783Z,1013.97
2018-03-26T03:17:41.798Z,1013.97
2018-03-26T03:18:41.786Z,1013.99
2018-03-26T03:19:41.796Z,1014
2018-03-26T03:20:41.802Z,1014
2018-03-26T03:21:41.796Z,1014.07
2018-03-26T03:22:41.790Z,1014.06
2018-03-26T03:23:41.798Z,1014.11
2018-03-26T03:24:41.800Z,1014.06
2018-03-26T03:25:41.809Z,1014.06
2018-03-26T03:26:41.808Z,1014.06
2018-03-26T03:27:41.805Z,1014.07
2018-03-26T03:28:41.812Z,1014.12
2018-03-26T03:29:42.101Z,1014.11
2018-03-26T03:30:41.855Z,1014.12
2018-03-26T03:31:41.916Z,1014.16
2018-03-26T03:32:41.882Z,1014.18
2018-03-26T03:33:41.828Z,1014.17
2018-03-26T03:34:41.850Z,1014.14
2018-03-26T03:35:41.831Z,1014.15
2018-03-26T03:36:41.898Z,1014.16
2018-03-26T03:37:41.846Z,1014.13
2018-03-26T03:38:41.853Z,1014.21
2018-03-26T03:39:41.874Z,1014.18
2018-03-26T03:40:41.860Z,1014.17
2018-03-26T03:41:41.886Z,1014.23
2018-03-26T03:42:41.862Z,1014.23
2018-03-26T03:43:41.853Z,1014.21
2018-03-26T03:44:41.862Z,1014.22
2018-03-26T03:45:41.856Z,1014.24
2018-03-26T03:46:41.860Z,1014.25
2018-03-26T03:47:41.867Z,1014.22
2018-03-26T03:48:41.865Z,1014.25
2018-03-26T03:49:41.872Z,1014.25
2018-03-26T03:50:41.898Z,1014.24
2018-03-26T03:51:41.878Z,1014.21
2018-03-26T03:52:41.885Z,1014.26
2018-03-26T03:53:41.885Z,1014.22
2018-03-26T03:54:41.891Z,1014.35
2018-03-26T03:55:41.919Z,1014.3
2018-03-26T03:56:41.894Z,1014.28
2018-03-26T03:57:41.902Z,1014.31
2018-03-26T03:58:41.959Z,1014.3
2018-03-26T03:59:41.910Z,1014.27
2018-03-26T04:00:41.918Z,1014.31
2018-03-26T04:01:41.921Z,1014.36
2018-03-26T04:02:42.083Z,1014.32
2018-03-26T04:03:41.924Z,1014.36
2018-03-26T04:04:41.930Z,1014.38
2018-03-26T04:05:41.926Z,1014.36
2018-03-26T04:06:41.924Z,1014.35
2018-03-26T04:07:41.949Z,1014.37
2018-03-26T04:08:41.919Z,1014.42
2018-03-26T04:09:41.936Z,1014.45
2018-03-26T04:10:41.932Z,1014.46
2018-03-26T04:11:41.939Z,1014.49
2018-03-26T04:12:41.935Z,1014.47
2018-03-26T04:13:41.952Z,1014.42
2018-03-26T04:14:41.949Z,1014.44
2018-03-26T04:15:41.945Z,1014.44
2018-03-26T04:16:41.936Z,1014.47
2018-03-26T04:17:41.942Z,1014.48
2018-03-26T04:18:41.972Z,1014.48
2018-03-26T04:19:41.946Z,1014.49
2018-03-26T04:20:41.951Z,1014.5
2018-03-26T04:21:41.947Z,1014.51
2018-03-26T04:22:41.955Z,1014.5
2018-03-26T04:23:41.983Z,1014.48
2018-03-26T04:24:41.967Z,1014.46
2018-03-26T04:25:41.965Z,1014.47
2018-03-26T04:26:41.981Z,1014.49
2018-03-26T04:27:41.981Z,1014.5
2018-03-26T04:28:42.012Z,1014.54
2018-03-26T04:29:42.009Z,1014.55
2018-03-26T04:30:41.998Z,1014.53
2018-03-26T04:31:42.010Z,1014.56
2018-03-26T04:32:42.002Z,1014.57
2018-03-26T04:33:41.999Z,1014.59
2018-03-26T04:34:42.005Z,1014.62
2018-03-26T04:35:42.020Z,1014.6
2018-03-26T04:36:42.012Z,1014.61
2018-03-26T04:37:42.016Z,1014.55
2018-03-26T04:38:42.013Z,1014.57
2018-03-26T04:39:42.009Z,1014.59
2018-03-26T04:40:42.024Z,1014.56
2018-03-26T04:41:42.140Z,1014.6
2018-03-26T04:42:42.022Z,1014.62
2018-03-26T04:43:42.028Z,1014.63
2018-03-26T04:44:42.034Z,1014.62
2018-03-26T04:45:42.042Z,1014.67
2018-03-26T04:46:42.048Z,1014.65
2018-03-26T04:47:42.062Z,1014.68
2018-03-26T04:48:42.047Z,1014.68
2018-03-26T04:49:42.069Z,1014.7
2018-03-26T04:50:42.048Z,1014.72
2018-03-26T04:51:42.052Z,1014.72
2018-03-26T04:52:42.052Z,1014.71
2018-03-26T04:53:42.051Z,1014.76
2018-03-26T04:54:42.064Z,1014.79
2018-03-26T04:55:42.076Z,1014.8
2018-03-26T04:56:42.064Z,1014.8
2018-03-26T04:57:42.063Z,1014.79
2018-03-26T04:58:42.068Z,1014.79
2018-03-26T04:59:42.063Z,1014.79
2018-03-26T05:00:42.076Z,1014.82
2018-03-26T05:01:42.078Z,1014.82
2018-03-26T05:02:42.087Z,1014.82
2018-03-26T05:03:42.078Z,1014.83
2018-03-26T05:04:42.088Z,1014.83
2018-03-26T05:05:42.096Z,1014.81
2018-03-26T05:06:42.090Z,1014.89
2018-03-26T05:07:42.093Z,1014.87
2018-03-26T05:08:42.103Z,1014.87
2018-03-26T05:09:42.098Z,1014.83
2018-03-26T05:10:42.099Z,1014.85
2018-03-26T05:11:42.096Z,1014.84
2018-03-26T05:12:42.141Z,1014.89
2018-03-26T05:13:42.102Z,1014.92
2018-03-26T05:14:42.126Z,1014.88
2018-03-26T05:15:42.126Z,1014.92
2018-03-26T05:16:42.118Z,1014.92
2018-03-26T05:17:42.120Z,1014.91
2018-03-26T05:18:42.117Z,1014.94
2018-03-26T05:19:42.121Z,1014.99
2018-03-26T05:20:42.128Z,1015
2018-03-26T05:21:42.121Z,1015
2018-03-26T05:22:42.263Z,1015.01
2018-03-26T05:23:42.137Z,1015.04
2018-03-26T05:24:42.132Z,1015
2018-03-26T05:25:42.147Z,1014.98
2018-03-26T05:26:42.151Z,1015.02
2018-03-26T05:27:42.197Z,1014.99
2018-03-26T05:28:42.164Z,1015
2018-03-26T05:29:42.152Z,1015.02
2018-03-26T05:30:42.159Z,1015.02
2018-03-26T05:31:42.156Z,1015.05
2018-03-26T05:32:42.441Z,1015.07
2018-03-26T05:33:42.167Z,1015.06
2018-03-26T05:34:42.175Z,1015.07
2018-03-26T05:35:42.187Z,1015.12
2018-03-26T05:36:42.189Z,1015.13
2018-03-26T05:37:42.215Z,1015.1
2018-03-26T05:38:42.186Z,1015.11
2018-03-26T05:39:42.196Z,1015.08
2018-03-26T05:40:42.204Z,1015.08
2018-03-26T05:41:42.197Z,1015.08
2018-03-26T05:42:42.207Z,1015.08
2018-03-26T05:43:42.208Z,1015.11
2018-03-26T05:44:42.206Z,1015.11
2018-03-26T05:45:42.210Z,1015.14
2018-03-26T05:46:42.213Z,1015.13
2018-03-26T05:47:42.220Z,1015.13
2018-03-26T05:48:42.222Z,1015.13
2018-03-26T05:49:42.225Z,1015.16
2018-03-26T05:50:42.240Z,1015.14
2018-03-26T05:51:42.240Z,1015.14
2018-03-26T05:52:42.258Z,1015.22
2018-03-26T05:53:42.258Z,1015.17
2018-03-26T05:54:42.249Z,1015.21
2018-03-26T05:55:42.275Z,1015.23
2018-03-26T05:56:42.322Z,1015.2
2018-03-26T05:57:42.292Z,1015.21
2018-03-26T05:58:42.275Z,1015.22
2018-03-26T05:59:42.265Z,1015.23
2018-03-26T06:00:42.276Z,1015.24
2018-03-26T06:01:42.271Z,1015.26
2018-03-26T06:02:42.277Z,1015.24
2018-03-26T06:03:42.282Z,1015.3
2018-03-26T06:04:42.285Z,1015.33
2018-03-26T06:05:42.285Z,1015.34
2018-03-26T06:06:42.296Z,1015.37
2018-03-26T06:07:42.297Z,1015.35
2018-03-26T06:08:42.313Z,1015.34
2018-03-26T06:09:42.309Z,1015.34
2018-03-26T06:10:42.317Z,1015.39
2018-03-26T06:11:42.309Z,1015.41
2018-03-26T06:12:42.316Z,1015.4
2018-03-26T06:13:42.319Z,1015.39
2018-03-26T06:14:42.318Z,1015.44
2018-03-26T06:15:42.321Z,1015.41
2018-03-26T06:16:42.316Z,1015.39
2018-03-26T06:17:42.329Z,1015.37
2018-03-26T06:18:42.326Z,1015.38
2018-03-26T06:19:42.336Z,1015.45
2018-03-26T06:20:42.341Z,1015.43
2018-03-26T06:21:42.356Z,1015.46
2018-03-26T06:22:42.351Z,1015.45
2018-03-26T06:23:42.351Z,1015.46
2018-03-26T06:24:42.358Z,1015.5
2018-03-26T06:25:42.368Z,1015.54
2018-03-26T06:26:42.364Z,1015.53
2018-03-26T06:27:42.365Z,1015.53
2018-03-26T06:28:42.378Z,1015.55
2018-03-26T06:29:42.381Z,1015.55
2018-03-26T06:30:42.570Z,1015.56
2018-03-26T06:31:42.396Z,1015.59
2018-03-26T06:32:42.383Z,1015.57
2018-03-26T06:33:42.390Z,1015.61
2018-03-26T06:34:42.394Z,1015.6
2018-03-26T06:35:42.399Z,1015.59
2018-03-26T06:36:42.407Z,1015.64
2018-03-26T06:37:42.404Z,1015.61
2018-03-26T06:38:42.408Z,1015.66
2018-03-26T06:39:42.412Z,1015.69
2018-03-26T06:40:42.408Z,1015.7
2018-03-26T06:41:42.410Z,1015.77
2018-03-26T06:42:42.413Z,1015.74
2018-03-26T06:43:42.420Z,1015.73
2018-03-26T06:44:42.427Z,1015.74
2018-03-26T06:45:42.495Z,1015.75
2018-03-26T06:46:42.511Z,1015.79
2018-03-26T06:47:42.430Z,1015.81
2018-03-26T06:48:42.436Z,1015.78
2018-03-26T06:49:42.451Z,1015.85
2018-03-26T06:50:42.439Z,1015.83
2018-03-26T06:51:42.465Z,1015.83
2018-03-26T06:52:42.452Z,1015.86
2018-03-26T06:53:42.455Z,1015.9
2018-03-26T06:54:42.454Z,1015.92
2018-03-26T06:55:42.467Z,1015.88
2018-03-26T06:56:42.533Z,1015.91
2018-03-26T06:57:42.457Z,1015.91
2018-03-26T06:58:42.460Z,1015.92
2018-03-26T06:59:42.460Z,1015.92
2018-03-26T07:00:42.461Z,1015.94
2018-03-26T07:01:42.482Z,1015.94
2018-03-26T07:02:42.467Z,1015.95
2018-03-26T07:03:42.473Z,1015.99
2018-03-26T07:04:42.473Z,1015.99
2018-03-26T07:05:42.470Z,1015.98
2018-03-26T07:06:42.533Z,1016.03
2018-03-26T07:07:42.526Z,1016.05
2018-03-26T07:08:42.495Z,1016.05
2018-03-26T07:09:42.492Z,1016.04
2018-03-26T07:10:42.491Z,1016.06
2018-03-26T07:11:42.494Z,1016.1
2018-03-26T07:12:42.521Z,1016.13
2018-03-26T07:13:42.498Z,1016.13
2018-03-26T07:14:42.552Z,1016.12
2018-03-26T07:15:42.506Z,1016.17
2018-03-26T07:16:42.508Z,1016.17
2018-03-26T07:17:42.511Z,1016.2
2018-03-26T07:18:42.520Z,1016.18
2018-03-26T07:19:42.514Z,1016.19
2018-03-26T07:20:42.515Z,1016.19
2018-03-26T07:21:42.585Z,1016.21
2018-03-26T07:22:42.524Z,1016.21
2018-03-26T07:23:42.530Z,1016.19
2018-03-26T07:24:42.531Z,1016.2
2018-03-26T07:25:42.546Z,1016.22
2018-03-26T07:26:42.531Z,1016.21
2018-03-26T07:27:42.538Z,1016.23
2018-03-26T07:28:42.547Z,1016.22
2018-03-26T07:29:42.541Z,1016.24
2018-03-26T07:30:42.564Z,1016.25
2018-03-26T07:31:42.541Z,1016.24
2018-03-26T07:32:42.544Z,1016.27
2018-03-26T07:33:42.549Z,1016.28
2018-03-26T07:34:42.561Z,1016.29
2018-03-26T07:35:42.569Z,1016.28
2018-03-26T07:36:42.558Z,1016.29
2018-03-26T07:37:42.581Z,1016.29
2018-03-26T07:38:42.570Z,1016.3
2018-03-26T07:39:42.571Z,1016.3
2018-03-26T07:40:42.577Z,1016.32
2018-03-26T07:41:42.578Z,1016.31
2018-03-26T07:42:42.577Z,1016.32
2018-03-26T07:43:42.584Z,1016.31
2018-03-26T07:44:42.579Z,1016.34
2018-03-26T07:45:42.575Z,1016.34
2018-03-26T07:46:42.582Z,1016.35
2018-03-26T07:47:42.589Z,1016.33
2018-03-26T07:48:42.594Z,1016.34
2018-03-26T07:49:42.605Z,1016.36
2018-03-26T07:50:42.598Z,1016.34
2018-03-26T07:51:42.606Z,1016.39
2018-03-26T07:52:42.608Z,1016.33
2018-03-26T07:53:42.616Z,1016.38
2018-03-26T07:54:42.626Z,1016.42
2018-03-26T07:55:42.624Z,1016.37
2018-03-26T07:56:42.638Z,1016.41
2018-03-26T07:57:42.618Z,1016.43
2018-03-26T07:58:42.624Z,1016.43
2018-03-26T07:59:42.629Z,1016.45
2018-03-26T08:00:42.612Z,1016.44
2018-03-26T08:01:42.627Z,1016.44
2018-03-26T08:02:42.629Z,1016.47
2018-03-26T08:03:42.637Z,1016.46
2018-03-26T08:04:42.646Z,1016.49
2018-03-26T08:05:42.640Z,1016.5
2018-03-26T08:06:42.640Z,1016.53
2018-03-26T08:07:42.648Z,1016.52
2018-03-26T08:08:42.643Z,1016.54
2018-03-26T08:09:42.643Z,1016.52
2018-03-26T08:10:42.654Z,1016.56
2018-03-26T08:11:42.659Z,1016.56
2018-03-26T08:12:42.664Z,1016.58
2018-03-26T08:13:42.670Z,1016.61
2018-03-26T08:14:42.678Z,1016.6
2018-03-26T08:15:42.683Z,1016.61
2018-03-26T08:16:42.758Z,1016.6
2018-03-26T08:17:42.676Z,1016.61
2018-03-26T08:18:42.685Z,1016.6
2018-03-26T08:19:42.688Z,1016.6
2018-03-26T08:20:42.693Z,1016.6
2018-03-26T08:21:42.687Z,1016.65
2018-03-26T08:22:42.694Z,1016.63
2018-03-26T08:23:42.708Z,1016.63
2018-03-26T08:24:42.720Z,1016.58
2018-03-26T08:25:42.730Z,1016.59
2018-03-26T08:26:42.705Z,1016.62
2018-03-26T08:27:42.712Z,1016.66
2018-03-26T08:28:42.719Z,1016.66
2018-03-26T08:29:42.720Z,1016.68
2018-03-26T08:30:42.726Z,1016.68
2018-03-26T08:31:42.731Z,1016.71
2018-03-26T08:32:42.738Z,1016.7
2018-03-26T08:33:42.750Z,1016.73
2018-03-26T08:34:42.745Z,1016.75
2018-03-26T08:35:42.743Z,1016.76
2018-03-26T08:36:42.748Z,1016.78
2018-03-26T08:37:42.754Z,1016.81
2018-03-26T08:38:42.761Z,1016.76
2018-03-26T08:39:42.768Z,1016.79
2018-03-26T08:40:42.791Z,1016.84
2018-03-26T08:41:42.763Z,1016.84
2018-03-26T08:42:42.766Z,1016.85
2018-03-26T08:43:42.772Z,1016.84
2018-03-26T08:44:42.770Z,1016.86
2018-03-26T08:45:42.801Z,1016.89
2018-03-26T08:48:48.965Z,1016.89
2018-03-26T08:49:42.914Z,1016.92
2018-03-26T08:50:43.090Z,1016.92
2018-03-26T08:51:42.809Z,1016.92
2018-03-26T08:52:42.799Z,1016.97
2018-03-26T08:53:42.807Z,1016.97
2018-03-26T08:54:42.808Z,1016.99
2018-03-26T08:55:42.838Z,1017.02
2018-03-26T08:56:42.799Z,1016.99
2018-03-26T08:57:42.801Z,1017.02
2018-03-26T08:58:42.799Z,1016.98
2018-03-26T08:59:42.808Z,1016.97
2018-03-26T09:00:42.830Z,1016.98
2018-03-26T09:01:42.819Z,1016.99
2018-03-26T09:02:42.825Z,1017
2018-03-26T09:03:42.831Z,1016.96
2018-03-26T09:04:42.839Z,1016.96
2018-03-26T09:05:42.836Z,1016.95
2018-03-26T09:06:42.839Z,1017.01
2018-03-26T09:07:42.830Z,1017
2018-03-26T09:08:42.838Z,1016.98
2018-03-26T09:09:42.840Z,1017.01
2018-03-26T09:10:42.850Z,1017.04
2018-03-26T09:11:42.848Z,1017.01
2018-03-26T09:12:42.852Z,1017.02
2018-03-26T09:13:42.857Z,1017.04
2018-03-26T09:14:42.880Z,1017.03
2018-03-26T09:15:42.856Z,1017
2018-03-26T09:16:42.852Z,1017.02
2018-03-26T09:17:42.850Z,1016.99
2018-03-26T09:18:42.851Z,1017
2018-03-26T09:20:42.874Z,1017.07
2018-03-26T09:21:42.879Z,1017.07
2018-03-26T09:22:42.878Z,1017.1
2018-03-26T09:23:42.883Z,1017.08
2018-03-26T09:24:42.878Z,1017.08
2018-03-26T09:25:42.909Z,1017.08
2018-03-26T09:26:42.902Z,1017.09
2018-03-26T09:27:42.905Z,1017
2018-03-26T09:28:42.911Z,1017.05
2018-03-26T09:29:42.935Z,1017.04
2018-03-26T09:30:42.919Z,1017.05
2018-03-26T09:31:42.911Z,1017.01
2018-03-26T09:32:42.947Z,1017.01
2018-03-26T09:33:42.925Z,1017.04
2018-03-26T09:34:42.931Z,1017.08
2018-03-26T09:35:42.927Z,1017.08
2018-03-26T09:36:42.929Z,1017.05
2018-03-26T09:37:42.935Z,1017.08
2018-03-26T09:38:42.936Z,1017.1
2018-03-26T09:39:42.957Z,1017.12
2018-03-26T09:40:42.952Z,1017.11
2018-03-26T09:41:42.956Z,1017.11
2018-03-26T09:42:42.969Z,1017.13
2018-03-26T09:43:42.966Z,1017.1
2018-03-26T09:44:42.967Z,1017.14
2018-03-26T09:45:42.965Z,1017.12
2018-03-26T09:46:42.974Z,1017.13
2018-03-26T09:47:43.054Z,1017.13
2018-03-26T09:48:42.978Z,1017.15
2018-03-26T09:49:42.975Z,1017.14
2018-03-26T09:50:42.980Z,1017.12
2018-03-26T09:51:42.987Z,1017.17
2018-03-26T09:52:43.001Z,1017.17
2018-03-26T10:26:53.287Z,1016.88
2018-03-26T10:27:53.287Z,1016.88
2018-03-26T10:28:53.293Z,1016.92
2018-03-26T10:29:53.293Z,1016.93
2018-03-26T10:30:53.296Z,1016.91
2018-03-26T10:31:53.363Z,1016.92
2018-03-26T10:32:53.303Z,1016.92
2018-03-26T11:47:14.640Z,1017.77
2018-03-26T11:48:14.637Z,1017.79
2018-03-26T11:49:15.175Z,1017.78
2018-03-26T11:50:18.597Z,1017.77
2018-03-26T11:51:15.892Z,1017.79
2018-03-26T11:52:17.333Z,1017.86
2018-03-26T11:53:17.980Z,1017.83
2018-03-26T11:54:17.977Z,1017.82
2018-03-26T11:55:17.976Z,1017.81
2018-03-26T11:56:17.983Z,1017.83
2018-03-26T11:57:59.640Z,1017.81
2018-03-26T11:58:59.640Z,1017.83
2018-03-26T11:59:59.634Z,1017.79
2018-03-26T12:00:59.631Z,1017.79
2018-03-26T12:01:59.634Z,1017.83
2018-03-26T12:02:59.624Z,1017.85
2018-03-26T12:03:59.627Z,1017.82
2018-03-26T12:04:59.632Z,1017.86
2018-03-26T12:05:59.626Z,1017.86
2018-03-26T12:06:59.623Z,1017.89
2018-03-26T12:07:59.620Z,1017.87
2018-03-26T12:08:59.615Z,1017.91
2018-03-26T12:09:59.614Z,1017.9
2018-03-26T12:10:59.613Z,1017.91
2018-03-26T12:11:59.618Z,1017.91
2018-03-26T12:12:59.614Z,1017.92
2018-03-26T12:13:59.617Z,1017.93
2018-03-26T12:14:59.611Z,1017.9
2018-03-26T12:15:59.610Z,1017.94
2018-03-26T12:16:59.605Z,1017.95
2018-03-26T12:17:59.604Z,1017.91
2018-03-26T12:18:59.602Z,1017.92
2018-03-26T12:19:59.597Z,1017.93
2018-03-26T12:20:59.605Z,1017.89
2018-03-26T12:21:59.607Z,1017.93
2018-03-26T12:22:59.975Z,1017.96
2018-03-26T12:23:59.613Z,1017.93
2018-03-26T12:24:59.603Z,1017.92
2018-03-26T12:25:59.588Z,1017.94
2018-03-26T12:26:59.599Z,1017.94
2018-03-26T12:27:59.670Z,1017.94
2018-03-26T12:28:59.585Z,1017.94
2018-03-26T12:29:59.594Z,1017.94
2018-03-26T12:30:59.589Z,1017.91
2018-03-26T12:31:59.630Z,1017.89
2018-03-26T12:32:59.585Z,1017.92
2018-03-26T12:33:59.592Z,1017.86
2018-03-26T12:34:59.578Z,1017.88
2018-03-26T12:35:59.584Z,1017.86
2018-03-26T12:36:59.592Z,1017.86
2018-03-26T12:37:59.570Z,1017.93
2018-03-26T12:38:59.590Z,1017.87
2018-03-26T12:39:59.658Z,1017.89
2018-03-26T12:40:59.569Z,1017.91
2018-03-26T12:41:59.568Z,1017.88
2018-03-26T12:42:59.571Z,1017.9
2018-03-26T12:43:59.566Z,1017.87
2018-03-26T12:44:59.567Z,1017.86
2018-03-26T12:45:59.572Z,1017.85
2018-03-26T12:46:59.619Z,1017.92
2018-03-26T12:47:59.560Z,1017.87
2018-03-26T12:48:59.570Z,1017.94
2018-03-26T12:49:59.549Z,1017.91
2018-03-26T12:50:59.556Z,1017.93
2018-03-26T12:51:59.552Z,1017.91
2018-03-26T12:52:59.556Z,1017.94
2018-03-26T12:53:59.543Z,1017.96
2018-03-26T12:54:59.560Z,1017.94
2018-03-26T12:55:59.544Z,1017.95
2018-03-26T12:56:59.546Z,1017.93
2018-03-26T12:57:59.545Z,1017.95
2018-03-26T12:58:59.636Z,1017.98
2018-03-26T12:59:59.594Z,1018.01
2018-03-26T13:00:59.538Z,1018
2018-03-26T13:01:59.545Z,1018.02
2018-03-26T13:02:59.546Z,1018.04
2018-03-26T13:03:59.541Z,1018.04
2018-03-26T13:04:59.534Z,1018.04
2018-03-26T13:05:59.546Z,1018.04
2018-03-26T13:06:59.524Z,1018.02
2018-03-26T13:07:59.532Z,1017.99
2018-03-26T13:08:59.522Z,1018.02
2018-03-26T13:09:59.519Z,1018.02
2018-03-26T13:10:59.537Z,1018.03
2018-03-26T13:11:59.524Z,1017.98
2018-03-26T13:12:59.519Z,1017.98
2018-03-26T13:13:59.521Z,1017.98
2018-03-26T13:14:59.521Z,1017.94
2018-03-26T13:15:59.511Z,1017.96
2018-03-26T13:16:59.507Z,1018
2018-03-26T13:17:59.506Z,1018
2018-03-26T13:18:59.513Z,1017.96
2018-03-26T13:19:59.518Z,1017.97
2018-03-26T13:20:59.523Z,1017.98
2018-03-26T13:21:59.522Z,1017.96
2018-03-26T13:22:59.506Z,1017.99
2018-03-26T13:23:59.509Z,1018.01
2018-03-26T13:24:59.500Z,1018.01
2018-03-26T13:25:59.504Z,1017.99
2018-03-26T13:26:59.497Z,1018.01
2018-03-26T13:27:59.494Z,1017.97
2018-03-26T13:28:59.495Z,1017.96
2018-03-26T13:57:20.272Z,1017.88
2018-03-26T13:58:20.287Z,1017.92
2018-03-26T13:59:20.248Z,1017.94
2018-03-26T14:00:20.290Z,1017.93
2018-03-26T14:01:20.250Z,1017.9
2018-03-26T14:02:20.246Z,1017.91
2018-03-26T14:03:20.241Z,1017.87
2018-03-26T14:04:20.242Z,1017.93
2018-03-26T14:05:20.240Z,1017.93
2018-03-26T14:06:20.234Z,1017.93
2018-03-26T14:07:20.282Z,1017.92
2018-03-26T14:08:20.232Z,1017.93
2018-03-26T14:09:20.234Z,1017.93
2018-03-26T14:10:20.235Z,1017.93
2018-03-26T14:11:20.268Z,1017.95
2018-03-26T14:12:20.226Z,1018
2018-03-26T14:13:20.224Z,1017.99
2018-03-26T14:14:20.225Z,1017.95
2018-03-26T14:15:20.222Z,1017.98
2018-03-26T14:16:20.274Z,1018.02
2018-03-26T14:17:20.220Z,1017.95
2018-03-26T14:18:20.265Z,1017.96
2018-03-26T14:19:20.211Z,1018
2018-03-26T14:20:20.210Z,1017.98
2018-03-26T14:21:20.221Z,1018.03
2018-03-26T14:22:20.209Z,1018.01
2018-03-26T14:23:20.212Z,1017.97
2018-03-26T14:24:20.207Z,1017.96
2018-03-26T14:25:20.205Z,1017.97
2018-03-26T14:26:20.229Z,1017.98
2018-03-26T14:27:20.280Z,1017.97